Time;durP1;ratioP1;P1;durP2;ratioP2;P2;SDS_P1;SDS_P2;PMS_P1;PMS_P2;Temp;Humidity;BMP_temperature;BMP_pressure;BME280_temperature;BME280_humidity;BME280_pressure;Samples;Min_cycle;Max_cycle;Signal;HPM_P1;HPM_P2
2022/09/25 00:00:47;;;;;;;7.00;1.30;;;;;;;20.43;50.31;101194.75;4972900;28;20022;-68
2022/09/25 00:03:14;;;;;;;3.38;1.50;;;;;;;20.43;50.81;101196.59;4956429;28;20417;-68
2022/09/25 00:05:41;;;;;;;3.83;1.08;;;;;;;20.46;50.95;101201.69;4956690;28;20031;-68
2022/09/25 00:08:08;;;;;;;3.80;1.30;;;;;;;20.46;50.56;101207.97;4972773;28;20066;-68
2022/09/25 00:10:34;;;;;;;3.20;1.15;;;;;;;20.48;50.42;101205.06;4940823;28;20121;-68
2022/09/25 00:12:59;;;;;;;4.78;1.15;;;;;;;20.44;51.16;101198.28;4972661;28;20122;-68
2022/09/25 00:15:25;;;;;;;3.15;0.93;;;;;;;20.45;50.74;101205.44;4940965;28;20023;-68
2022/09/25 00:17:50;;;;;;;3.25;1.17;;;;;;;20.43;50.92;101202.06;4959945;28;20076;-68
2022/09/25 00:20:17;;;;;;;5.05;0.85;;;;;;;20.43;50.35;101202.06;4975983;28;20058;-67
2022/09/25 00:22:42;;;;;;;7.45;1.15;;;;;;;20.41;50.61;101204.13;4976051;28;20027;-68
2022/09/25 00:25:13;;;;;;;5.95;0.82;;;;;;;20.39;50.20;101204.28;4959803;28;20038;-68
2022/09/25 00:27:39;;;;;;;6.80;1.10;;;;;;;20.39;51.11;101208.88;4975989;28;20114;-68
2022/09/25 00:30:05;;;;;;;5.80;1.75;;;;;;;20.40;50.78;101205.13;4975756;28;20084;-68
2022/09/25 00:32:30;;;;;;;4.57;1.13;;;;;;;20.40;50.81;101210.59;4975898;28;20039;-68
2022/09/25 00:34:56;;;;;;;6.35;2.03;;;;;;;20.41;50.48;101198.69;4975776;28;20493;-68
2022/09/25 00:37:21;;;;;;;4.45;0.98;;;;;;;20.45;51.25;101205.44;4975878;28;20027;-67
2022/09/25 00:39:47;;;;;;;5.07;1.30;;;;;;;20.46;50.87;101204.41;4975654;28;20062;-68
2022/09/25 00:42:13;;;;;;;6.35;1.30;;;;;;;20.49;50.95;101212.22;4975775;28;20026;-68
2022/09/25 00:45:00;;;;;;;2.53;1.15;;;;;;;20.52;50.36;101206.41;4975636;28;20038;-68
2022/09/25 00:47:44;;;;;;;4.95;1.58;;;;;;;20.50;50.40;101213.88;4976773;28;20050;-68
2022/09/25 00:50:23;;;;;;;3.42;1.17;;;;;;;20.50;50.54;101208.44;4976863;28;20026;-68
2022/09/25 00:52:51;;;;;;;5.03;1.73;;;;;;;20.51;51.03;101213.72;4975462;28;20045;-68
2022/09/25 00:55:17;;;;;;;5.40;1.60;;;;;;;20.50;50.97;101211.16;4959799;28;20027;-68
2022/09/25 00:57:45;;;;;;;7.72;1.10;;;;;;;20.53;50.73;101211.66;4976637;28;20082;-68
2022/09/25 01:00:12;;;;;;;2.25;1.25;;;;;;;20.55;50.49;101212.28;4975449;28;20061;-68
2022/09/25 01:02:43;;;;;;;4.55;2.15;;;;;;;20.56;50.58;101214.00;4975283;28;20043;-68
2022/09/25 01:05:13;;;;;;;4.78;1.45;;;;;;;20.55;51.10;101211.44;4975109;28;20074;-68
2022/09/25 01:07:41;;;;;;;6.13;1.50;;;;;;;20.58;50.94;101211.09;4959303;28;20174;-68
2022/09/25 01:10:07;;;;;;;3.60;1.42;;;;;;;20.59;50.88;101219.06;4975093;28;20023;-68
2022/09/25 01:12:39;;;;;;;4.80;1.17;;;;;;;20.60;51.26;101214.50;4975130;28;20039;-68
2022/09/25 01:15:06;;;;;;;3.15;1.58;;;;;;;20.58;50.73;101217.38;4974970;28;20018;-68
2022/09/25 01:17:39;;;;;;;3.40;1.05;;;;;;;20.56;50.33;101218.59;4958818;28;20035;-68
2022/09/25 01:20:13;;;;;;;8.43;1.67;;;;;;;20.57;51.15;101220.28;4974918;28;20165;-68
2022/09/25 01:22:54;;;;;;;4.55;1.35;;;;;;;20.57;50.59;101225.75;4974850;28;20053;-68
2022/09/25 01:25:25;;;;;;;4.18;1.85;;;;;;;20.54;50.61;101221.50;4974736;28;20055;-68
2022/09/25 01:28:13;;;;;;;6.80;1.52;;;;;;;20.54;50.62;101226.09;4975237;28;20514;-68
2022/09/25 01:30:41;;;;;;;5.68;1.60;;;;;;;20.53;50.85;101229.84;4975938;28;20027;-68
2022/09/25 01:33:12;;;;;;;5.85;1.85;;;;;;;20.54;50.79;101224.22;4974805;28;20080;-68
2022/09/25 01:35:53;;;;;;;9.13;1.95;;;;;;;20.53;51.02;101225.25;4974719;28;20029;-68
2022/09/25 01:38:39;;;;;;;4.72;1.80;;;;;;;20.52;50.72;101229.00;4974580;28;20135;-68
2022/09/25 01:41:19;;;;;;;5.05;1.58;;;;;;;20.48;50.45;101221.41;4974502;28;20037;-68
2022/09/25 01:43:56;;;;;;;5.10;1.70;;;;;;;20.46;51.75;101224.31;4974644;28;20121;-68
2022/09/25 01:46:27;;;;;;;4.93;2.17;;;;;;;20.46;50.66;101231.63;4974526;28;20030;-68
2022/09/25 01:48:55;;;;;;;8.55;2.97;;;;;;;20.45;51.36;101232.66;4958397;28;20118;-68
2022/09/25 01:51:27;;;;;;;3.80;1.70;;;;;;;20.42;50.85;101235.72;4975675;28;20062;-68
2022/09/25 01:54:31;;;;;;;7.75;1.70;;;;;;;20.42;50.79;101239.31;4974402;28;20034;-68
2022/09/25 01:57:17;;;;;;;5.85;2.20;;;;;;;20.39;50.79;101238.81;4975516;28;20118;-68
2022/09/25 01:59:44;;;;;;;3.92;1.52;;;;;;;20.40;50.86;101237.78;4974310;28;20062;-68
2022/09/25 02:02:12;;;;;;;9.18;2.40;;;;;;;20.39;50.86;101238.81;4974169;28;20027;-68
2022/09/25 02:04:41;;;;;;;5.07;1.55;;;;;;;20.35;50.67;101232.06;4973989;28;20133;-68
2022/09/25 02:07:24;;;;;;;5.13;1.88;;;;;;;20.33;50.84;101235.81;4957993;28;20026;-68
2022/09/25 02:09:50;;;;;;;;;;;;;;;20.32;50.50;101239.53;4974541;28;20059;-68
2022/09/25 02:12:18;;;;;;;7.00;1.60;;;;;;;20.26;50.98;101234.84;4974228;28;19910;-68
2022/09/25 02:14:52;;;;;;;4.57;1.30;;;;;;;20.22;51.28;101228.03;4974013;28;20039;-68
2022/09/25 02:20:31;;;;;;;6.38;2.10;;;;;;;20.22;51.05;101228.03;4974130;28;20066;-68
2022/09/25 02:23:04;;;;;;;9.00;2.10;;;;;;;20.23;50.05;101231.59;4974063;28;20027;-68
2022/09/25 02:25:36;;;;;;;6.18;1.63;;;;;;;20.23;50.80;101227.00;4973764;28;20484;-68
2022/09/25 02:28:01;;;;;;;2.60;1.23;;;;;;;20.25;50.90;101227.72;4973706;28;20374;-68
2022/09/25 02:30:27;;;;;;;4.93;1.75;;;;;;;20.25;50.11;101238.59;4973682;28;20029;-68
2022/09/25 02:32:52;;;;;;;5.40;1.40;;;;;;;20.23;50.77;101232.47;4973681;28;20444;-68
2022/09/25 02:35:18;;;;;;;2.88;1.20;;;;;;;20.23;51.04;101235.19;4957670;28;20038;-67
2022/09/25 02:37:43;;;;;;;5.82;1.30;;;;;;;20.25;50.39;101237.75;4941525;28;20121;-68
2022/09/25 02:40:10;;;;;;;3.33;1.27;;;;;;;20.23;50.90;101227.00;4957415;28;20035;-68
2022/09/25 02:42:48;;;;;;;4.70;1.38;;;;;;;20.28;50.54;101249.13;4957586;28;20058;-68
2022/09/25 02:45:25;;;;;;;3.90;1.10;;;;;;;20.28;50.57;101243.66;4975086;28;20042;-68
2022/09/25 02:48:21;;;;;;;5.15;1.70;;;;;;;20.25;50.52;101238.59;4973462;28;20025;-68
2022/09/25 02:51:21;;;;;;;9.25;2.10;;;;;;;20.25;50.52;101237.75;4974599;28;20043;-68
2022/09/25 02:53:55;;;;;;;5.63;1.38;;;;;;;20.22;50.77;101238.06;4973387;28;20146;-68
2022/09/25 02:56:42;;;;;;;12.70;1.30;;;;;;;20.22;50.38;101228.03;4957561;28;20041;-68
2022/09/25 02:59:17;;;;;;;4.03;1.38;;;;;;;20.21;50.10;101225.50;4974576;28;20100;-68
2022/09/25 03:01:45;;;;;;;9.15;1.58;;;;;;;20.21;51.23;101220.88;4957278;28;20058;-68
2022/09/25 03:04:11;;;;;;;5.63;1.45;;;;;;;20.21;50.71;101225.50;4973122;28;20390;-68
2022/09/25 03:06:37;;;;;;;9.20;1.35;;;;;;;20.22;50.65;101228.03;4973329;28;20393;-68
2022/09/25 03:09:03;;;;;;;5.78;1.70;;;;;;;20.22;50.13;101238.91;4973347;28;20026;-68
2022/09/25 03:11:28;;;;;;;2.92;1.15;;;;;;;20.20;50.27;101238.25;4973291;28;20030;-68
2022/09/25 03:14:01;;;;;;;5.20;1.20;;;;;;;20.20;50.35;101235.53;4957115;28;20026;-68
2022/09/25 03:16:55;;;;;;;4.18;1.00;;;;;;;20.19;50.36;101244.72;4973195;28;20031;-68
2022/09/25 03:19:20;;;;;;;4.07;1.33;;;;;;;20.18;50.42;101248.47;4969394;28;20047;-68
2022/09/25 03:21:46;;;;;;;4.53;1.25;;;;;;;20.18;49.79;101245.72;4973181;28;20030;-68
2022/09/25 03:24:12;;;;;;;3.58;1.10;;;;;;;20.20;50.20;101257.31;4956971;28;20026;-68
2022/09/25 03:26:37;;;;;;;4.03;1.13;;;;;;;20.20;50.30;101256.44;4973044;28;20026;-68
2022/09/25 03:29:03;;;;;;;1.73;0.95;;;;;;;20.16;50.15;101249.66;4973032;28;20050;-68
2022/09/25 03:31:29;;;;;;;4.20;1.05;;;;;;;20.16;50.03;101250.53;4973026;28;20048;-68
2022/09/25 03:33:55;;;;;;;1.42;0.73;;;;;;;20.12;50.15;101242.91;4973163;28;20086;-67
2022/09/25 03:36:22;;;;;;;6.43;1.30;;;;;;;20.07;49.94;101246.16;4957046;28;20109;-68
2022/09/25 03:38:50;;;;;;;6.22;1.05;;;;;;;20.06;50.31;101249.94;4956934;28;20049;-68
2022/09/25 03:41:20;;;;;;;2.22;0.93;;;;;;;20.06;50.31;101244.47;4974288;28;20026;-68
2022/09/25 03:43:49;;;;;;;9.70;1.23;;;;;;;20.06;50.21;101249.94;4972982;28;20085;-68
2022/09/25 03:46:15;;;;;;;3.92;1.00;;;;;;;20.05;50.06;101248.22;4973108;28;20042;-68
2022/09/25 03:48:40;;;;;;;2.30;0.82;;;;;;;20.00;49.88;101245.19;4974129;28;20488;-68
2022/09/25 03:51:06;;;;;;;4.18;0.95;;;;;;;20.02;49.99;101242.28;4975450;28;20078;-68
2022/09/25 03:53:32;;;;;;;1.52;0.70;;;;;;;20.00;49.64;101250.63;4976600;28;20050;-68
2022/09/25 03:56:01;;;;;;;2.55;0.80;;;;;;;20.01;49.96;101246.91;4944623;28;20030;-68
2022/09/25 03:58:28;;;;;;;5.28;1.38;;;;;;;20.03;49.69;101242.13;4976449;28;20027;-68
2022/09/25 04:00:56;;;;;;;2.70;1.10;;;;;;;20.05;50.57;101248.22;4976441;28;20037;-68
2022/09/25 04:03:23;;;;;;;2.78;1.05;;;;;;;20.03;49.70;101239.41;4960339;28;20402;-68
2022/09/25 04:05:48;;;;;;;2.88;1.20;;;;;;;20.02;50.12;101243.13;4960762;28;20030;-68
2022/09/25 04:08:14;;;;;;;7.70;1.05;;;;;;;20.00;49.58;101239.75;4976555;28;20623;-68
2022/09/25 04:10:40;;;;;;;5.95;1.10;;;;;;;19.99;50.21;101240.78;4976286;28;20027;-68
2022/09/25 04:13:07;;;;;;;4.07;1.00;;;;;;;19.99;49.70;101238.06;4977457;28;20049;-68
2022/09/25 04:15:33;;;;;;;8.57;0.98;;;;;;;20.00;50.16;101245.19;4976197;28;20022;-68
2022/09/25 04:17:58;;;;;;;5.85;0.98;;;;;;;20.01;50.06;101241.47;4976127;28;20053;-68
2022/09/25 04:20:23;;;;;;;5.03;0.80;;;;;;;19.96;49.88;101243.84;4977587;28;20111;-68
2022/09/25 04:22:49;;;;;;;1.95;0.90;;;;;;;19.99;49.92;101240.78;4977309;28;20023;-68
2022/09/25 04:25:14;;;;;;;3.90;1.20;;;;;;;19.94;50.20;101237.75;4975898;28;20073;-69
2022/09/25 04:27:40;;;;;;;5.18;1.50;;;;;;;19.96;49.93;101238.41;4975929;28;20030;-68
2022/09/25 04:30:06;;;;;;;3.60;0.88;;;;;;;19.92;50.08;101231.66;4959736;28;20562;-68
2022/09/25 04:35:15;;;;;;;4.22;1.33;;;;;;;19.93;49.97;101233.38;4976042;28;20155;-68
2022/09/25 04:37:40;;;;;;;5.63;1.02;;;;;;;19.93;49.79;101233.38;4975728;28;20118;-68
2022/09/25 04:40:07;;;;;;;5.80;1.23;;;;;;;19.93;49.52;101233.38;4975634;28;20031;-69
2022/09/25 04:42:32;;;;;;;3.63;1.80;;;;;;;19.91;49.90;101235.38;4943461;28;20035;-68
2022/09/25 04:44:57;;;;;;;4.03;0.95;;;;;;;19.90;49.68;101239.16;4977118;28;20031;-69
2022/09/25 04:47:25;;;;;;;6.65;0.90;;;;;;;19.92;49.89;101238.97;4959736;28;20117;-68
2022/09/25 04:49:51;;;;;;;7.57;1.15;;;;;;;19.91;49.80;101240.81;4975591;28;20089;-68
2022/09/25 04:52:17;;;;;;;3.25;1.05;;;;;;;19.89;49.34;101231.16;4975493;28;20031;-68
2022/09/25 04:54:43;;;;;;;3.85;1.02;;;;;;;19.88;49.61;101234.94;4976633;28;20070;-69
2022/09/25 04:57:10;;;;;;;6.13;0.90;;;;;;;19.86;49.54;101235.09;4975537;28;20039;-68
2022/09/25 04:59:36;;;;;;;7.20;0.88;;;;;;;19.83;49.84;101237.31;4975378;28;20038;-68
2022/09/25 05:02:01;;;;;;;4.28;1.02;;;;;;;19.83;49.54;101243.59;4974287;28;20409;-68
2022/09/25 05:04:26;;;;;;;2.97;1.27;;;;;;;19.82;49.37;101244.63;4974947;28;20055;-68
2022/09/25 05:06:52;;;;;;;2.90;1.00;;;;;;;19.81;49.90;101250.25;4976455;28;20035;-69
2022/09/25 05:09:17;;;;;;;4.35;1.20;;;;;;;19.78;49.49;101256.88;4975224;28;20058;-68
2022/09/25 05:11:44;;;;;;;3.35;1.17;;;;;;;19.74;50.02;101250.09;4959090;28;20061;-68
2022/09/25 05:14:10;;;;;;;3.95;0.98;;;;;;;19.71;49.19;101251.31;4975084;28;20026;-68
2022/09/25 05:16:35;;;;;;;4.05;0.98;;;;;;;19.70;49.79;101259.66;4976198;28;20027;-68
2022/09/25 05:19:00;;;;;;;11.05;1.30;;;;;;;19.69;49.80;101257.94;4958799;28;20027;-68
2022/09/25 05:21:26;;;;;;;11.40;1.50;;;;;;;19.68;49.76;101256.28;4974894;28;20551;-68
2022/09/25 05:23:51;;;;;;;5.35;1.00;;;;;;;19.65;49.85;101256.63;4976006;28;20392;-68
2022/09/25 05:26:17;;;;;;;3.60;1.83;;;;;;;19.60;49.31;101253.56;4974891;28;20060;-68
2022/09/25 05:28:42;;;;;;;5.53;1.25;;;;;;;19.57;49.47;101248.53;4974815;28;20030;-68
2022/09/25 05:31:08;;;;;;;1.80;1.05;;;;;;;19.58;49.88;101266.50;4958550;28;20113;-69
2022/09/25 05:33:34;;;;;;;7.10;1.75;;;;;;;19.55;49.40;101261.41;4958622;28;20045;-68
2022/09/25 05:36:01;;;;;;;9.27;1.15;;;;;;;19.49;49.42;101252.09;4974804;28;20026;-68
2022/09/25 05:38:27;;;;;;;7.05;1.17;;;;;;;19.48;49.90;101257.72;4974564;28;20034;-68
2022/09/25 05:40:54;;;;;;;4.32;2.55;;;;;;;19.47;49.91;101258.75;4974602;28;20027;-68
2022/09/25 05:43:19;;;;;;;4.90;1.27;;;;;;;19.44;49.58;101259.94;4975656;28;20041;-68
2022/09/25 05:45:52;;;;;;;6.70;0.88;;;;;;;19.42;50.23;101261.13;4974502;28;20026;-68
2022/09/25 05:48:18;;;;;;;;;;;;;;;19.41;49.15;101262.16;4976101;28;20133;-68
2022/09/25 05:50:43;;;;;;;2.83;1.10;;;;;;;19.37;49.41;101258.06;4958175;28;19997;-68
2022/09/25 05:53:08;;;;;;;4.55;1.33;;;;;;;19.35;49.93;101265.53;4975638;28;20031;-68
2022/09/25 05:55:34;;;;;;;5.10;1.15;;;;;;;19.32;49.78;101263.19;4958211;28;20058;-68
2022/09/25 05:58:03;;;;;;;1.38;1.00;;;;;;;19.26;49.65;101266.59;4974129;28;20026;-68
2022/09/25 06:00:31;;;;;;;5.90;1.13;;;;;;;19.25;49.39;101271.19;4974294;28;20026;-68
2022/09/25 06:02:57;;;;;;;1.38;1.10;;;;;;;19.24;49.86;101274.06;4942332;28;20046;-68
2022/09/25 06:05:22;;;;;;;3.05;1.05;;;;;;;19.21;49.97;101263.56;4974020;28;20108;-68
2022/09/25 06:07:52;;;;;;;12.98;1.20;;;;;;;19.21;49.81;101269.00;4975283;28;20110;-68
2022/09/25 06:10:18;;;;;;;4.78;1.70;;;;;;;19.18;50.38;101270.16;4974212;28;20050;-68
2022/09/25 06:12:43;;;;;;;5.00;0.85;;;;;;;19.21;49.47;101269.00;4975275;28;20480;-68
2022/09/25 06:15:09;;;;;;;4.43;1.38;;;;;;;19.24;49.04;101264.03;4957563;28;20062;-68
2022/09/25 06:17:34;;;;;;;3.45;1.10;;;;;;;19.43;49.67;101265.56;4957776;28;20038;-68
2022/09/25 06:19:59;;;;;;;4.18;1.17;;;;;;;19.57;48.88;101270.25;4975152;28;20023;-68
2022/09/25 06:22:25;;;;;;;5.65;1.52;;;;;;;19.70;49.21;101265.94;4973981;28;20030;-68
2022/09/25 06:24:50;;;;;;;7.75;2.08;;;;;;;19.88;49.05;101273.81;4973801;28;20066;-68
2022/09/25 06:27:16;;;;;;;1.98;1.10;;;;;;;20.03;48.55;101277.47;4974971;28;20420;-68
2022/09/25 06:29:41;;;;;;;2.58;1.23;;;;;;;20.18;48.89;101272.94;4974981;28;20481;-69
2022/09/25 06:32:06;;;;;;;4.50;1.40;;;;;;;20.33;48.27;101278.50;4957549;28;20053;-68
2022/09/25 06:34:32;;;;;;;10.10;1.35;;;;;;;20.49;48.33;101289.25;4974888;28;20043;-69
2022/09/25 06:36:59;;;;;;;7.82;1.63;;;;;;;20.62;48.44;101285.91;4974827;28;20033;-68
2022/09/25 06:39:25;;;;;;;5.60;1.13;;;;;;;20.75;48.25;101286.97;4973643;28;20030;-68
2022/09/25 06:41:53;;;;;;;6.82;1.50;;;;;;;20.93;48.55;101275.75;4973650;28;20077;-68
2022/09/25 06:44:22;;;;;;;6.03;1.73;;;;;;;21.09;48.11;101280.22;4957356;28;20026;-68
2022/09/25 06:46:53;;;;;;;8.15;1.60;;;;;;;21.24;48.08;101272.91;4957433;28;20488;-68
2022/09/25 06:49:19;;;;;;;5.13;1.63;;;;;;;21.42;47.76;101281.53;4973429;28;20027;-69
2022/09/25 06:51:44;;;;;;;10.32;1.67;;;;;;;21.54;47.43;101279.19;4973431;28;20034;-69
2022/09/25 06:54:10;;;;;;;5.68;1.50;;;;;;;21.73;47.26;101275.88;4957424;28;20434;-68
2022/09/25 06:56:35;;;;;;;6.78;1.27;;;;;;;21.87;47.24;101269.56;4974561;28;20030;-69
2022/09/25 06:59:00;;;;;;;3.65;0.98;;;;;;;22.02;46.65;101273.13;4957220;28;20539;-68
2022/09/25 07:01:26;;;;;;;1.90;1.00;;;;;;;22.20;46.98;101269.94;4974566;28;20026;-68
2022/09/25 07:03:51;;;;;;;5.70;1.50;;;;;;;22.35;47.14;101274.31;4973091;28;20086;-68
2022/09/25 07:06:20;;;;;;;11.73;2.60;;;;;;;22.51;46.60;101274.03;4974518;28;20023;-68
2022/09/25 07:08:47;;;;;;;2.55;0.93;;;;;;;22.70;46.62;101275.28;4973347;28;20143;-68
2022/09/25 07:11:18;;;;;;;4.97;1.42;;;;;;;22.86;46.62;101277.75;4974414;28;20035;-69
2022/09/25 07:13:43;;;;;;;8.93;1.30;;;;;;;22.93;46.74;101280.53;4973324;28;20110;-68
2022/09/25 07:16:14;;;;;;;4.65;1.58;;;;;;;23.11;45.88;101275.41;4974457;28;20109;-68
2022/09/25 07:18:40;;;;;;;11.68;1.30;;;;;;;23.25;45.71;101281.81;4973253;28;20425;-69
2022/09/25 07:21:11;;;;;;;6.95;1.30;;;;;;;23.42;45.27;101281.28;4973199;28;20078;-69
2022/09/25 07:23:37;;;;;;;2.65;1.20;;;;;;;23.55;45.15;101273.19;4973097;28;20392;-69
2022/09/25 07:26:14;;;;;;;5.15;1.27;;;;;;;23.73;45.65;101283.56;4974552;28;20035;-69
2022/09/25 07:28:41;;;;;;;3.38;1.30;;;;;;;23.89;45.26;101285.09;4977051;28;20039;-69
2022/09/25 07:31:21;;;;;;;7.35;1.35;;;;;;;24.06;45.28;101286.44;4960746;28;20027;-68
2022/09/25 07:33:46;;;;;;;8.55;1.15;;;;;;;24.20;44.63;101285.47;4976973;28;20105;-68
2022/09/25 07:36:13;;;;;;;8.40;1.38;;;;;;;24.36;44.88;101289.69;4977017;28;20512;-69
2022/09/25 07:38:38;;;;;;;5.45;1.13;;;;;;;24.51;44.12;101280.22;4978163;28;20034;-68
2022/09/25 07:41:05;;;;;;;4.65;1.80;;;;;;;24.66;44.09;101288.25;4960719;28;20110;-69
2022/09/25 07:43:34;;;;;;;4.28;1.23;;;;;;;24.83;44.16;101284.91;4977907;28;20030;-68
2022/09/25 07:45:59;;;;;;;5.55;1.40;;;;;;;24.99;44.13;101280.03;4960685;28;20081;-69
2022/09/25 07:48:26;;;;;;;3.72;1.73;;;;;;;25.16;43.93;101278.56;4944890;28;20031;-69
2022/09/25 07:50:51;;;;;;;2.97;1.10;;;;;;;25.33;43.46;101277.91;4976592;28;20026;-69
2022/09/25 07:53:17;;;;;;;2.50;1.10;;;;;;;25.52;43.23;101289.91;4960636;28;20088;-69
2022/09/25 07:55:44;;;;;;;6.00;1.23;;;;;;;25.63;43.02;101286.47;4976642;28;20027;-69
2022/09/25 07:58:10;;;;;;;2.60;1.20;;;;;;;25.78;42.80;101289.81;4960354;28;20485;-69
2022/09/25 08:00:36;;;;;;;2.22;1.30;;;;;;;25.77;43.13;101281.78;4976297;28;20034;-69
2022/09/25 08:03:01;;;;;;;4.25;1.27;;;;;;;25.95;42.90;101285.53;4976192;28;20045;-69
2022/09/25 08:05:27;;;;;;;5.07;1.52;;;;;;;26.13;42.35;101278.47;4976378;28;20118;-69
2022/09/25 08:07:52;;;;;;;2.55;1.10;;;;;;;26.25;42.10;101284.94;4976278;28;20049;-69
2022/09/25 08:10:18;;;;;;;5.82;2.17;;;;;;;26.39;42.10;101286.56;4960003;28;20495;-69
2022/09/25 08:12:44;;;;;;;2.75;1.02;;;;;;;26.54;42.04;101285.19;4976091;28;20373;-69
2022/09/25 08:15:09;;;;;;;2.78;0.98;;;;;;;26.63;42.01;101280.28;4976107;28;20053;-69
2022/09/25 08:17:35;;;;;;;6.07;1.13;;;;;;;26.76;41.88;101290.31;4975857;28;20070;-69
2022/09/25 08:20:01;;;;;;;3.75;1.15;;;;;;;26.89;41.69;101293.81;4959858;28;20054;-69
2022/09/25 08:22:26;;;;;;;1.98;1.10;;;;;;;27.06;40.97;101294.94;4975893;28;20433;-69
2022/09/25 08:24:52;;;;;;;1.77;0.90;;;;;;;27.09;40.73;101294.47;4959663;28;20121;-69
2022/09/25 08:27:17;;;;;;;5.55;0.90;;;;;;;27.24;40.46;101296.03;4975764;28;20029;-69
2022/09/25 08:29:43;;;;;;;2.30;1.30;;;;;;;27.35;40.18;101290.63;4959601;28;20065;-69
2022/09/25 08:32:08;;;;;;;8.55;1.15;;;;;;;27.46;40.35;101289.91;4976842;28;20051;-69
2022/09/25 08:34:34;;;;;;;3.83;1.00;;;;;;;27.55;40.26;101290.44;4975716;28;20035;-69
2022/09/25 08:36:59;;;;;;;5.03;1.17;;;;;;;27.65;39.65;101286.06;4976551;28;20030;-69
2022/09/25 08:39:24;;;;;;;2.28;0.93;;;;;;;27.75;39.38;101283.59;4959608;28;20034;-71
2022/09/25 08:41:54;;;;;;;2.85;0.98;;;;;;;27.87;39.74;101286.44;4975870;28;20031;-71
2022/09/25 08:44:34;;;;;;;1.58;0.80;;;;;;;28.05;39.30;101289.22;4959447;28;20389;-71
2022/09/25 08:50:14;;;;;;;4.32;1.13;;;;;;;28.38;38.76;101282.38;4976687;28;20116;-70
2022/09/25 08:52:41;;;;;;;7.25;1.20;;;;;;;28.53;39.24;101280.84;4975466;28;20030;-71
2022/09/25 08:55:23;;;;;;;3.88;0.85;;;;;;;28.66;38.39;101279.84;4976657;28;20026;-70
2022/09/25 08:57:50;;;;;;;3.50;1.30;;;;;;;28.79;38.57;101285.13;4975527;28;20018;-70
2022/09/25 09:00:17;;;;;;;2.75;1.38;;;;;;;28.55;39.06;101277.88;4959515;28;20031;-70
2022/09/25 09:02:46;;;;;;;7.15;0.82;;;;;;;28.82;37.59;101279.13;4975282;28;20118;-70
2022/09/25 09:05:36;;;;;;;1.35;1.00;;;;;;;28.70;37.86;101279.13;4975154;28;20117;-70
2022/09/25 09:08:08;;;;;;;3.90;0.88;;;;;;;28.21;38.16;101277.53;4951626;28;20091;-71
2022/09/25 09:10:57;;;;;;;4.18;0.93;;;;;;;28.04;38.74;101275.66;4975172;28;20022;-72
2022/09/25 09:13:31;;;;;;;4.50;1.33;;;;;;;28.38;37.46;101285.13;4958911;28;20039;-72
2022/09/25 09:16:11;;;;;;;2.67;0.60;;;;;;;28.74;37.79;101274.81;4976250;28;20026;-71
2022/09/25 09:18:39;;;;;;;1.58;0.60;;;;;;;29.05;37.05;101289.34;4958898;28;20035;-70
2022/09/25 09:21:12;;;;;;;3.50;1.15;;;;;;;28.76;37.33;101280.94;4975051;28;20485;-70
2022/09/25 09:23:57;;;;;;;1.83;0.80;;;;;;;28.81;37.18;101286.56;4975153;28;20113;-71
2022/09/25 09:26:34;;;;;;;2.97;0.80;;;;;;;29.51;36.67;101283.00;4974917;28;20485;-70
2022/09/25 09:29:18;;;;;;;3.28;0.70;;;;;;;30.21;36.11;101273.44;4976063;28;20484;-71
2022/09/25 09:31:55;;;;;;;1.92;0.70;;;;;;;31.12;34.92;101275.06;4974708;28;20034;-72
2022/09/25 09:34:53;;;;;;;3.38;0.75;;;;;;;33.42;31.88;101277.88;4975921;28;20026;-72
2022/09/25 09:37:30;;;;;;;3.83;1.05;;;;;;;33.68;31.90;101261.34;4975101;28;20516;-71
2022/09/25 09:40:19;;;;;;;3.10;0.80;;;;;;;33.35;32.28;101274.50;4974597;28;20027;-71
2022/09/25 09:42:58;;;;;;;3.88;0.90;;;;;;;33.40;32.10;101265.34;4974561;28;20030;-72
2022/09/25 09:45:57;;;;;;;2.20;0.50;;;;;;;33.52;31.66;101268.75;4975559;28;20061;-72
2022/09/25 09:48:48;;;;;;;4.30;0.57;;;;;;;33.02;33.32;101268.41;4973838;28;20484;-73
2022/09/25 09:51:21;;;;;;;6.95;1.00;;;;;;;33.59;31.52;101274.09;4974187;28;20023;-72
2022/09/25 09:53:56;;;;;;;5.55;0.80;;;;;;;33.93;31.56;101265.06;4974489;28;20019;-71
2022/09/25 09:56:24;;;;;;;6.88;1.33;;;;;;;34.31;31.24;101260.19;4974300;28;20027;-71
2022/09/25 09:58:51;;;;;;;2.88;0.70;;;;;;;34.67;31.16;101264.69;4957990;28;20393;-70
2022/09/25 10:01:20;;;;;;;3.55;0.82;;;;;;;35.01;30.04;101259.41;4974106;28;20482;-72
2022/09/25 10:03:48;;;;;;;3.25;0.85;;;;;;;35.39;29.38;101260.72;4973718;28;20046;-72
2022/09/25 10:06:15;;;;;;;2.03;0.60;;;;;;;35.79;29.14;101260.59;4974131;28;20400;-72
2022/09/25 10:08:41;;;;;;;3.35;0.70;;;;;;;35.72;29.59;101248.06;4973970;28;20096;-73
2022/09/25 10:11:19;;;;;;;2.40;0.65;;;;;;;34.16;31.12;101257.38;4973906;28;20022;-72
2022/09/25 10:13:44;;;;;;;4.68;0.95;;;;;;;33.16;31.97;101264.09;4973917;28;20030;-71
2022/09/25 10:16:11;;;;;;;1.10;0.40;;;;;;;32.29;32.26;101258.88;4973866;28;20049;-72
2022/09/25 10:18:48;;;;;;;4.40;0.65;;;;;;;32.42;31.90;101252.03;4973920;28;20507;-71
2022/09/25 10:21:20;;;;;;;2.50;1.02;;;;;;;33.24;30.79;101250.53;4957890;28;20499;-72
2022/09/25 10:23:45;;;;;;;1.03;0.50;;;;;;;33.95;30.50;101253.66;4973833;28;20023;-71
2022/09/25 10:26:35;;;;;;;2.70;0.57;;;;;;;34.45;29.75;101244.63;4973861;28;20393;-71
2022/09/25 10:29:02;;;;;;;2.22;0.55;;;;;;;34.78;29.62;101243.25;4973690;28;20061;-72
2022/09/25 10:31:31;;;;;;;2.72;0.73;;;;;;;35.09;28.98;101244.91;4973454;28;20023;-72
2022/09/25 10:34:01;;;;;;;6.82;0.88;;;;;;;35.36;28.62;101244.56;4973637;28;20143;-73
2022/09/25 10:36:50;;;;;;;5.13;0.68;;;;;;;35.74;28.08;101235.50;4957387;28;20026;-72
2022/09/25 10:39:38;;;;;;;2.42;0.63;;;;;;;34.70;29.28;101238.25;4957395;28;20068;-72
2022/09/25 10:42:25;;;;;;;3.30;0.70;;;;;;;33.88;29.28;101228.91;4973548;28;20449;-72
2022/09/25 10:44:54;;;;;;;4.13;0.50;;;;;;;32.80;31.01;101236.03;4973172;28;20030;-72
2022/09/25 10:50:15;;;;;;;2.35;0.65;;;;;;;32.71;30.52;101245.97;4974547;28;20536;-72
2022/09/25 10:52:57;;;;;;;0.93;0.50;;;;;;;32.11;30.35;101239.81;4973483;28;20090;-72
2022/09/25 10:55:29;;;;;;;;;;;;;;;32.50;29.99;101241.31;4973834;28;20026;-73
2022/09/25 10:58:08;;;;;;;2.50;0.45;;;;;;;32.56;29.73;101237.50;4973183;28;19910;-73
2022/09/25 11:00:39;;;;;;;0.60;0.30;;;;;;;31.93;30.77;101238.22;4974535;28;20069;-73
2022/09/25 11:03:05;;;;;;;6.07;0.53;;;;;;;31.21;31.44;101239.47;4973087;28;20467;-73
2022/09/25 11:05:33;;;;;;;3.50;0.30;;;;;;;31.42;30.57;101235.88;4973175;28;20158;-72
2022/09/25 11:08:03;;;;;;;2.00;0.40;;;;;;;32.43;29.50;101243.47;4973126;28;20085;-72
2022/09/25 11:10:33;;;;;;;2.05;0.50;;;;;;;33.05;29.32;101231.78;4973299;28;20023;-72
2022/09/25 11:13:01;;;;;;;3.15;0.60;;;;;;;33.19;29.55;101233.00;4973069;28;20023;-72
2022/09/25 11:15:26;;;;;;;1.35;0.30;;;;;;;33.88;27.86;101228.91;4973146;28;20492;-72
2022/09/25 11:17:57;;;;;;;2.70;0.47;;;;;;;34.30;28.38;101236.25;4956914;28;20030;-73
2022/09/25 11:20:30;;;;;;;4.65;1.25;;;;;;;34.60;27.19;101236.28;4973066;28;20395;-75
2022/09/25 11:22:58;;;;;;;1.95;0.52;;;;;;;33.65;28.61;101239.66;4972878;28;20033;-72
2022/09/25 11:25:46;;;;;;;5.57;0.50;;;;;;;33.33;28.52;101237.78;4974187;28;20121;-72
2022/09/25 11:28:32;;;;;;;0.85;0.38;;;;;;;32.48;29.00;101235.19;4972986;28;20109;-72
2022/09/25 11:31:08;;;;;;;2.70;0.47;;;;;;;31.66;29.66;101234.56;4974108;28;20093;-71
2022/09/25 11:34:09;;;;;;;3.10;0.60;;;;;;;30.99;29.94;101231.94;4972941;28;20023;-71
2022/09/25 11:36:47;;;;;;;1.25;0.32;;;;;;;32.05;28.74;101240.88;4972807;28;20038;-71
2022/09/25 11:42:36;;;;;;;2.55;0.52;;;;;;;33.57;28.26;101243.78;4973944;28;20034;-72
2022/09/25 11:45:08;;;;;;;4.05;0.40;;;;;;;33.41;27.74;101233.69;4972777;28;20039;-71
2022/09/25 11:47:38;;;;;;;0.85;0.30;;;;;;;32.83;29.14;101227.19;4974043;28;20114;-72
2022/09/25 11:50:10;;;;;;;2.22;0.45;;;;;;;32.32;29.52;101225.06;4972799;28;20027;-71
2022/09/25 11:52:53;;;;;;;7.18;0.55;;;;;;;31.76;29.96;101231.09;4972781;28;20361;-73
2022/09/25 11:56:13;;;;;;;5.28;0.55;;;;;;;30.97;30.04;101222.22;4972876;28;20069;-72